Sedro Woolley, Washington
Current Conditions -  °F | °C
As of 11:55 AM on Wednesday 17 Dec 2014 (Local Time) from KBVS Reporting Station
Overcast Overcast  
Wind Chill: 45°   Ceiling: 4000
Heat Index: 48°   Visibility: 10mi
Dew Point: 39°   Wind: 7mph
Humidity: 71%   Direction: 70°ENE
Pressure: 29.86"   Gusts: NA
Location:  48.54°N, 122.19°W
Report Text: KBVS 171955Z AUTO 07006KT 10SM OVC040 09/04 A2986 RMK A01 P000
Loading
Personal Weather Stations






























Interactive Weather Map New forecast layout! Learn more

10-Day Weather Forecast

Advertisements
Track Severe Weather on mobile